sensor_id;sensor_type;location;lat;lon;timestamp;P1;durP1;ratioP1;P2;durP2;ratioP2
2225;SDS011;1119;48.288;8.726;2023-03-12T00:01:13;3.50;;;3.17;;
2225;SDS011;1119;48.288;8.726;2023-03-12T00:04:03;11.48;;;5.90;;
2225;SDS011;1119;48.288;8.726;2023-03-12T00:06:51;6.78;;;4.25;;
2225;SDS011;1119;48.288;8.726;2023-03-12T00:09:40;4.03;;;2.50;;
2225;SDS011;1119;48.288;8.726;2023-03-12T00:12:27;2.95;;;2.75;;
2225;SDS011;1119;48.288;8.726;2023-03-12T00:15:15;3.28;;;3.10;;
2225;SDS011;1119;48.288;8.726;2023-03-12T00:18:03;3.38;;;3.20;;
2225;SDS011;1119;48.288;8.726;2023-03-12T00:20:52;3.20;;;3.00;;
2225;SDS011;1119;48.288;8.726;2023-03-12T00:23:40;3.30;;;3.05;;
2225;SDS011;1119;48.288;8.726;2023-03-12T00:26:29;3.55;;;3.30;;
2225;SDS011;1119;48.288;8.726;2023-03-12T00:29:17;3.50;;;3.30;;
2225;SDS011;1119;48.288;8.726;2023-03-12T00:32:06;3.65;;;2.97;;
2225;SDS011;1119;48.288;8.726;2023-03-12T00:34:54;4.03;;;3.72;;
2225;SDS011;1119;48.288;8.726;2023-03-12T00:37:42;4.10;;;3.90;;
2225;SDS011;1119;48.288;8.726;2023-03-12T00:40:30;4.88;;;3.40;;
2225;SDS011;1119;48.288;8.726;2023-03-12T00:43:19;4.82;;;3.97;;
2225;SDS011;1119;48.288;8.726;2023-03-12T00:46:06;4.47;;;3.42;;
2225;SDS011;1119;48.288;8.726;2023-03-12T00:48:54;6.72;;;4.50;;
2225;SDS011;1119;48.288;8.726;2023-03-12T00:51:42;3.97;;;3.65;;
2225;SDS011;1119;48.288;8.726;2023-03-12T00:54:29;4.13;;;3.80;;
2225;SDS011;1119;48.288;8.726;2023-03-12T00:57:17;4.30;;;4.03;;
2225;SDS011;1119;48.288;8.726;2023-03-12T01:00:09;3.95;;;3.55;;
2225;SDS011;1119;48.288;8.726;2023-03-12T01:02:58;3.47;;;3.08;;
2225;SDS011;1119;48.288;8.726;2023-03-12T01:05:46;6.07;;;4.57;;
2225;SDS011;1119;48.288;8.726;2023-03-12T01:08:38;4.30;;;3.97;;
2225;SDS011;1119;48.288;8.726;2023-03-12T01:11:26;3.42;;;3.13;;
2225;SDS011;1119;48.288;8.726;2023-03-12T01:14:15;5.85;;;3.35;;
2225;SDS011;1119;48.288;8.726;2023-03-12T01:17:04;5.43;;;4.43;;
2225;SDS011;1119;48.288;8.726;2023-03-12T01:19:52;3.08;;;2.88;;
2225;SDS011;1119;48.288;8.726;2023-03-12T01:22:39;4.90;;;4.47;;
2225;SDS011;1119;48.288;8.726;2023-03-12T01:25:28;7.57;;;4.03;;
2225;SDS011;1119;48.288;8.726;2023-03-12T01:28:18;6.18;;;4.10;;
2225;SDS011;1119;48.288;8.726;2023-03-12T01:31:06;4.13;;;3.92;;
2225;SDS011;1119;48.288;8.726;2023-03-12T01:33:56;4.35;;;3.63;;
2225;SDS011;1119;48.288;8.726;2023-03-12T01:36:44;5.28;;;4.10;;
2225;SDS011;1119;48.288;8.726;2023-03-12T01:39:32;4.75;;;3.50;;
2225;SDS011;1119;48.288;8.726;2023-03-12T01:42:20;3.92;;;3.67;;
2225;SDS011;1119;48.288;8.726;2023-03-12T01:48:50;5.13;;;4.30;;
2225;SDS011;1119;48.288;8.726;2023-03-12T01:51:45;4.25;;;3.92;;
2225;SDS011;1119;48.288;8.726;2023-03-12T01:54:37;4.30;;;4.00;;
2225;SDS011;1119;48.288;8.726;2023-03-12T01:57:29;7.25;;;4.68;;
2225;SDS011;1119;48.288;8.726;2023-03-12T02:00:22;22.75;;;4.68;;
2225;SDS011;1119;48.288;8.726;2023-03-12T02:03:14;6.68;;;4.65;;
2225;SDS011;1119;48.288;8.726;2023-03-12T02:06:05;4.73;;;4.30;;
2225;SDS011;1119;48.288;8.726;2023-03-12T02:08:58;5.95;;;4.85;;
2225;SDS011;1119;48.288;8.726;2023-03-12T02:11:54;3.70;;;3.53;;
2225;SDS011;1119;48.288;8.726;2023-03-12T02:14:42;4.65;;;4.25;;
2225;SDS011;1119;48.288;8.726;2023-03-12T02:17:30;4.05;;;3.65;;
2225;SDS011;1119;48.288;8.726;2023-03-12T02:20:19;4.35;;;4.05;;
2225;SDS011;1119;48.288;8.726;2023-03-12T02:23:17;4.68;;;4.28;;
2225;SDS011;1119;48.288;8.726;2023-03-12T02:26:14;4.88;;;4.63;;
2225;SDS011;1119;48.288;8.726;2023-03-12T02:29:03;5.68;;;3.95;;
2225;SDS011;1119;48.288;8.726;2023-03-12T02:31:52;3.92;;;3.72;;
2225;SDS011;1119;48.288;8.726;2023-03-12T02:34:42;4.70;;;4.20;;
2225;SDS011;1119;48.288;8.726;2023-03-12T02:37:30;4.28;;;3.97;;
2225;SDS011;1119;48.288;8.726;2023-03-12T02:40:19;4.43;;;4.13;;
2225;SDS011;1119;48.288;8.726;2023-03-12T02:43:15;6.50;;;4.53;;
2225;SDS011;1119;48.288;8.726;2023-03-12T02:46:07;4.93;;;4.53;;
2225;SDS011;1119;48.288;8.726;2023-03-12T02:48:55;4.15;;;3.85;;
2225;SDS011;1119;48.288;8.726;2023-03-12T02:51:44;3.95;;;3.75;;
2225;SDS011;1119;48.288;8.726;2023-03-12T02:54:33;5.03;;;4.63;;
2225;SDS011;1119;48.288;8.726;2023-03-12T02:57:21;5.37;;;3.93;;
2225;SDS011;1119;48.288;8.726;2023-03-12T03:00:11;8.83;;;3.70;;
2225;SDS011;1119;48.288;8.726;2023-03-12T03:03:03;4.97;;;4.57;;
2225;SDS011;1119;48.288;8.726;2023-03-12T03:05:51;4.30;;;3.90;;
2225;SDS011;1119;48.288;8.726;2023-03-12T03:08:38;5.50;;;3.37;;
2225;SDS011;1119;48.288;8.726;2023-03-12T03:11:28;4.97;;;4.57;;
2225;SDS011;1119;48.288;8.726;2023-03-12T03:14:16;5.93;;;4.07;;
2225;SDS011;1119;48.288;8.726;2023-03-12T03:17:08;4.63;;;4.10;;
2225;SDS011;1119;48.288;8.726;2023-03-12T03:19:55;5.80;;;4.50;;
2225;SDS011;1119;48.288;8.726;2023-03-12T03:22:43;7.88;;;4.35;;
2225;SDS011;1119;48.288;8.726;2023-03-12T03:25:31;4.25;;;3.90;;
2225;SDS011;1119;48.288;8.726;2023-03-12T03:28:20;5.67;;;4.17;;
2225;SDS011;1119;48.288;8.726;2023-03-12T03:31:09;4.60;;;4.23;;
2225;SDS011;1119;48.288;8.726;2023-03-12T03:34:00;3.97;;;3.67;;
2225;SDS011;1119;48.288;8.726;2023-03-12T03:36:48;4.60;;;4.20;;
2225;SDS011;1119;48.288;8.726;2023-03-12T03:39:37;5.38;;;4.05;;
2225;SDS011;1119;48.288;8.726;2023-03-12T03:42:25;5.00;;;4.70;;
2225;SDS011;1119;48.288;8.726;2023-03-12T03:45:13;5.15;;;4.60;;
2225;SDS011;1119;48.288;8.726;2023-03-12T03:48:03;4.60;;;4.20;;
2225;SDS011;1119;48.288;8.726;2023-03-12T03:50:53;4.88;;;4.47;;
2225;SDS011;1119;48.288;8.726;2023-03-12T03:53:46;5.28;;;4.78;;
2225;SDS011;1119;48.288;8.726;2023-03-12T03:56:33;4.70;;;4.40;;
2225;SDS011;1119;48.288;8.726;2023-03-12T03:59:22;4.47;;;4.15;;
2225;SDS011;1119;48.288;8.726;2023-03-12T04:02:10;4.55;;;4.25;;
2225;SDS011;1119;48.288;8.726;2023-03-12T04:04:59;4.32;;;4.00;;
2225;SDS011;1119;48.288;8.726;2023-03-12T04:07:50;4.10;;;3.80;;
2225;SDS011;1119;48.288;8.726;2023-03-12T04:10:41;4.80;;;4.40;;
2225;SDS011;1119;48.288;8.726;2023-03-12T04:13:28;5.20;;;4.60;;
2225;SDS011;1119;48.288;8.726;2023-03-12T04:16:16;5.40;;;4.87;;
2225;SDS011;1119;48.288;8.726;2023-03-12T04:19:05;5.35;;;4.65;;
2225;SDS011;1119;48.288;8.726;2023-03-12T04:21:53;4.43;;;4.05;;
2225;SDS011;1119;48.288;8.726;2023-03-12T04:24:42;6.45;;;4.43;;
2225;SDS011;1119;48.288;8.726;2023-03-12T04:27:29;4.72;;;4.43;;
2225;SDS011;1119;48.288;8.726;2023-03-12T04:30:17;4.80;;;4.40;;
2225;SDS011;1119;48.288;8.726;2023-03-12T04:33:05;5.18;;;4.78;;
2225;SDS011;1119;48.288;8.726;2023-03-12T04:35:54;4.40;;;4.10;;
2225;SDS011;1119;48.288;8.726;2023-03-12T04:38:42;5.00;;;4.53;;
2225;SDS011;1119;48.288;8.726;2023-03-12T04:41:32;5.57;;;5.27;;
2225;SDS011;1119;48.288;8.726;2023-03-12T04:44:25;4.75;;;3.70;;
2225;SDS011;1119;48.288;8.726;2023-03-12T04:47:13;13.63;;;5.20;;
2225;SDS011;1119;48.288;8.726;2023-03-12T04:50:01;9.73;;;3.50;;
2225;SDS011;1119;48.288;8.726;2023-03-12T04:52:50;6.70;;;3.90;;
2225;SDS011;1119;48.288;8.726;2023-03-12T04:55:38;3.50;;;3.30;;
2225;SDS011;1119;48.288;8.726;2023-03-12T04:58:27;4.30;;;4.00;;
2225;SDS011;1119;48.288;8.726;2023-03-12T05:04:25;4.43;;;4.00;;
2225;SDS011;1119;48.288;8.726;2023-03-12T05:07:14;4.57;;;4.00;;
2225;SDS011;1119;48.288;8.726;2023-03-12T05:10:02;5.60;;;5.10;;
2225;SDS011;1119;48.288;8.726;2023-03-12T05:12:51;4.27;;;4.00;;
2225;SDS011;1119;48.288;8.726;2023-03-12T05:15:41;4.03;;;3.80;;
2225;SDS011;1119;48.288;8.726;2023-03-12T05:18:29;5.50;;;4.90;;
2225;SDS011;1119;48.288;8.726;2023-03-12T05:21:18;5.77;;;5.27;;
2225;SDS011;1119;48.288;8.726;2023-03-12T05:24:10;4.18;;;3.80;;
2225;SDS011;1119;48.288;8.726;2023-03-12T05:26:58;6.60;;;5.20;;
2225;SDS011;1119;48.288;8.726;2023-03-12T05:29:46;5.73;;;4.20;;
2225;SDS011;1119;48.288;8.726;2023-03-12T05:32:36;10.40;;;4.63;;
2225;SDS011;1119;48.288;8.726;2023-03-12T05:35:24;6.90;;;5.33;;
2225;SDS011;1119;48.288;8.726;2023-03-12T05:38:12;6.57;;;5.53;;
2225;SDS011;1119;48.288;8.726;2023-03-12T05:41:00;6.47;;;5.87;;
2225;SDS011;1119;48.288;8.726;2023-03-12T05:43:51;6.65;;;6.00;;
2225;SDS011;1119;48.288;8.726;2023-03-12T05:46:41;6.17;;;5.67;;
2225;SDS011;1119;48.288;8.726;2023-03-12T05:49:30;6.63;;;5.78;;
2225;SDS011;1119;48.288;8.726;2023-03-12T05:52:18;5.87;;;5.40;;
2225;SDS011;1119;48.288;8.726;2023-03-12T05:55:07;6.90;;;6.30;;
2225;SDS011;1119;48.288;8.726;2023-03-12T05:57:56;7.38;;;6.68;;
2225;SDS011;1119;48.288;8.726;2023-03-12T06:00:43;7.40;;;6.10;;
2225;SDS011;1119;48.288;8.726;2023-03-12T06:03:33;7.85;;;7.15;;
2225;SDS011;1119;48.288;8.726;2023-03-12T06:06:23;8.10;;;6.30;;
2225;SDS011;1119;48.288;8.726;2023-03-12T06:09:11;6.60;;;6.10;;
2225;SDS011;1119;48.288;8.726;2023-03-12T06:12:00;6.43;;;5.93;;
2225;SDS011;1119;48.288;8.726;2023-03-12T06:14:48;10.17;;;7.93;;
2225;SDS011;1119;48.288;8.726;2023-03-12T06:17:36;7.73;;;6.93;;
2225;SDS011;1119;48.288;8.726;2023-03-12T06:20:24;7.50;;;6.80;;
2225;SDS011;1119;48.288;8.726;2023-03-12T06:23:13;8.60;;;7.47;;
2225;SDS011;1119;48.288;8.726;2023-03-12T06:26:01;8.53;;;7.23;;
2225;SDS011;1119;48.288;8.726;2023-03-12T06:28:49;8.13;;;7.00;;
2225;SDS011;1119;48.288;8.726;2023-03-12T06:31:38;8.47;;;7.60;;
2225;SDS011;1119;48.288;8.726;2023-03-12T06:34:26;9.75;;;8.57;;
2225;SDS011;1119;48.288;8.726;2023-03-12T06:37:14;8.38;;;7.65;;
2225;SDS011;1119;48.288;8.726;2023-03-12T06:40:03;8.13;;;6.60;;
2225;SDS011;1119;48.288;8.726;2023-03-12T06:42:55;9.37;;;7.23;;
2225;SDS011;1119;48.288;8.726;2023-03-12T06:45:42;7.63;;;7.00;;
2225;SDS011;1119;48.288;8.726;2023-03-12T06:48:30;8.85;;;7.97;;
2225;SDS011;1119;48.288;8.726;2023-03-12T06:51:21;7.13;;;6.47;;
2225;SDS011;1119;48.288;8.726;2023-03-12T06:54:09;9.32;;;7.80;;
2225;SDS011;1119;48.288;8.726;2023-03-12T06:56:58;8.60;;;7.90;;
2225;SDS011;1119;48.288;8.726;2023-03-12T06:59:45;8.27;;;7.40;;
2225;SDS011;1119;48.288;8.726;2023-03-12T07:02:33;8.13;;;7.40;;
2225;SDS011;1119;48.288;8.726;2023-03-12T07:05:21;6.90;;;6.00;;
2225;SDS011;1119;48.288;8.726;2023-03-12T07:08:09;9.40;;;8.18;;
2225;SDS011;1119;48.288;8.726;2023-03-12T07:10:57;10.33;;;7.50;;
2225;SDS011;1119;48.288;8.726;2023-03-12T07:13:47;9.33;;;5.90;;
2225;SDS011;1119;48.288;8.726;2023-03-12T07:16:34;8.50;;;6.70;;
2225;SDS011;1119;48.288;8.726;2023-03-12T07:19:22;8.53;;;7.73;;
2225;SDS011;1119;48.288;8.726;2023-03-12T07:22:09;9.50;;;7.13;;
2225;SDS011;1119;48.288;8.726;2023-03-12T07:24:57;10.93;;;7.50;;
2225;SDS011;1119;48.288;8.726;2023-03-12T07:27:45;8.50;;;7.70;;
2225;SDS011;1119;48.288;8.726;2023-03-12T07:30:33;7.53;;;6.70;;
2225;SDS011;1119;48.288;8.726;2023-03-12T07:33:21;6.77;;;6.23;;
2225;SDS011;1119;48.288;8.726;2023-03-12T07:36:09;9.40;;;8.70;;
2225;SDS011;1119;48.288;8.726;2023-03-12T07:38:56;7.27;;;6.77;;
2225;SDS011;1119;48.288;8.726;2023-03-12T07:41:44;6.43;;;6.00;;
2225;SDS011;1119;48.288;8.726;2023-03-12T07:44:32;7.63;;;6.63;;
2225;SDS011;1119;48.288;8.726;2023-03-12T07:47:22;6.00;;;5.40;;
2225;SDS011;1119;48.288;8.726;2023-03-12T07:50:10;5.60;;;5.10;;
2225;SDS011;1119;48.288;8.726;2023-03-12T07:52:59;7.13;;;6.57;;
2225;SDS011;1119;48.288;8.726;2023-03-12T07:55:46;6.23;;;5.13;;
2225;SDS011;1119;48.288;8.726;2023-03-12T07:58:34;5.23;;;4.73;;
2225;SDS011;1119;48.288;8.726;2023-03-12T08:01:23;5.80;;;5.30;;
2225;SDS011;1119;48.288;8.726;2023-03-12T08:04:17;4.97;;;4.43;;
2225;SDS011;1119;48.288;8.726;2023-03-12T08:07:05;6.93;;;6.33;;
2225;SDS011;1119;48.288;8.726;2023-03-12T08:09:53;6.00;;;5.50;;
2225;SDS011;1119;48.288;8.726;2023-03-12T08:12:41;5.00;;;4.60;;
2225;SDS011;1119;48.288;8.726;2023-03-12T08:15:28;5.37;;;4.93;;
2225;SDS011;1119;48.288;8.726;2023-03-12T08:18:16;6.20;;;5.70;;
2225;SDS011;1119;48.288;8.726;2023-03-12T08:21:05;5.93;;;5.47;;
2225;SDS011;1119;48.288;8.726;2023-03-12T08:23:52;5.60;;;5.10;;
2225;SDS011;1119;48.288;8.726;2023-03-12T08:26:40;5.20;;;4.43;;
2225;SDS011;1119;48.288;8.726;2023-03-12T08:29:27;3.63;;;3.43;;
2225;SDS011;1119;48.288;8.726;2023-03-12T08:32:15;5.60;;;4.77;;
2225;SDS011;1119;48.288;8.726;2023-03-12T08:35:03;4.80;;;4.40;;
2225;SDS011;1119;48.288;8.726;2023-03-12T08:37:52;4.83;;;4.43;;
2225;SDS011;1119;48.288;8.726;2023-03-12T08:40:41;4.40;;;4.20;;
2225;SDS011;1119;48.288;8.726;2023-03-12T08:43:29;3.97;;;3.77;;
2225;SDS011;1119;48.288;8.726;2023-03-12T08:46:16;4.37;;;4.17;;
2225;SDS011;1119;48.288;8.726;2023-03-12T08:49:04;3.70;;;3.50;;
2225;SDS011;1119;48.288;8.726;2023-03-12T08:51:52;4.03;;;3.73;;
2225;SDS011;1119;48.288;8.726;2023-03-12T08:54:41;4.17;;;3.77;;
2225;SDS011;1119;48.288;8.726;2023-03-12T08:57:29;3.60;;;3.40;;
2225;SDS011;1119;48.288;8.726;2023-03-12T09:00:16;4.03;;;3.90;;
2225;SDS011;1119;48.288;8.726;2023-03-12T09:03:05;4.13;;;3.90;;
2225;SDS011;1119;48.288;8.726;2023-03-12T09:06:03;4.73;;;4.20;;
2225;SDS011;1119;48.288;8.726;2023-03-12T09:08:54;5.20;;;4.80;;
2225;SDS011;1119;48.288;8.726;2023-03-12T09:11:43;4.20;;;3.90;;
2225;SDS011;1119;48.288;8.726;2023-03-12T09:14:31;4.20;;;3.90;;
2225;SDS011;1119;48.288;8.726;2023-03-12T09:17:18;6.60;;;3.80;;
2225;SDS011;1119;48.288;8.726;2023-03-12T09:20:07;6.87;;;6.20;;
2225;SDS011;1119;48.288;8.726;2023-03-12T09:22:58;7.70;;;6.17;;
2225;SDS011;1119;48.288;8.726;2023-03-12T09:25:46;4.10;;;3.83;;
2225;SDS011;1119;48.288;8.726;2023-03-12T09:28:35;4.30;;;4.00;;
2225;SDS011;1119;48.288;8.726;2023-03-12T09:31:23;4.10;;;3.90;;
2225;SDS011;1119;48.288;8.726;2023-03-12T09:34:10;4.80;;;4.40;;
2225;SDS011;1119;48.288;8.726;2023-03-12T09:36:58;5.80;;;4.10;;
2225;SDS011;1119;48.288;8.726;2023-03-12T09:39:47;4.37;;;4.07;;
2225;SDS011;1119;48.288;8.726;2023-03-12T09:42:37;6.23;;;5.63;;
2225;SDS011;1119;48.288;8.726;2023-03-12T09:45:31;4.17;;;3.13;;
2225;SDS011;1119;48.288;8.726;2023-03-12T09:48:24;5.10;;;4.80;;
2225;SDS011;1119;48.288;8.726;2023-03-12T09:51:19;4.20;;;4.00;;
2225;SDS011;1119;48.288;8.726;2023-03-12T09:54:14;5.87;;;5.37;;
2225;SDS011;1119;48.288;8.726;2023-03-12T09:57:11;4.17;;;3.77;;
2225;SDS011;1119;48.288;8.726;2023-03-12T10:00:10;5.63;;;5.10;;
2225;SDS011;1119;48.288;8.726;2023-03-12T10:03:09;5.67;;;5.13;;
2225;SDS011;1119;48.288;8.726;2023-03-12T10:06:11;4.20;;;3.70;;
2225;SDS011;1119;48.288;8.726;2023-03-12T10:09:06;10.50;;;4.77;;
2225;SDS011;1119;48.288;8.726;2023-03-12T10:12:23;3.90;;;3.70;;
2225;SDS011;1119;48.288;8.726;2023-03-12T10:15:23;4.93;;;4.27;;
2225;SDS011;1119;48.288;8.726;2023-03-12T10:18:26;4.10;;;3.80;;
2225;SDS011;1119;48.288;8.726;2023-03-12T10:21:24;10.90;;;4.30;;
2225;SDS011;1119;48.288;8.726;2023-03-12T10:24:26;4.83;;;3.50;;
2225;SDS011;1119;48.288;8.726;2023-03-12T10:27:27;3.87;;;3.60;;
2225;SDS011;1119;48.288;8.726;2023-03-12T10:30:21;3.27;;;3.17;;
2225;SDS011;1119;48.288;8.726;2023-03-12T10:33:12;2.83;;;2.73;;
2225;SDS011;1119;48.288;8.726;2023-03-12T10:36:07;3.57;;;3.40;;
2225;SDS011;1119;48.288;8.726;2023-03-12T10:39:00;4.10;;;3.90;;
2225;SDS011;1119;48.288;8.726;2023-03-12T10:41:49;4.20;;;3.90;;
2225;SDS011;1119;48.288;8.726;2023-03-12T10:44:37;4.30;;;3.43;;
2225;SDS011;1119;48.288;8.726;2023-03-12T10:47:32;5.67;;;5.20;;
2225;SDS011;1119;48.288;8.726;2023-03-12T10:50:22;4.47;;;4.17;;
2225;SDS011;1119;48.288;8.726;2023-03-12T10:53:17;5.33;;;3.20;;
2225;SDS011;1119;48.288;8.726;2023-03-12T10:56:11;6.73;;;6.03;;
2225;SDS011;1119;48.288;8.726;2023-03-12T10:59:00;3.70;;;3.50;;
2225;SDS011;1119;48.288;8.726;2023-03-12T11:01:49;5.13;;;4.80;;
2225;SDS011;1119;48.288;8.726;2023-03-12T11:04:38;6.53;;;3.60;;
2225;SDS011;1119;48.288;8.726;2023-03-12T11:07:26;3.60;;;3.30;;
2225;SDS011;1119;48.288;8.726;2023-03-12T11:10:18;7.93;;;4.80;;
2225;SDS011;1119;48.288;8.726;2023-03-12T11:13:21;5.67;;;2.93;;
2225;SDS011;1119;48.288;8.726;2023-03-12T11:16:23;3.50;;;3.30;;
2225;SDS011;1119;48.288;8.726;2023-03-12T11:19:14;5.43;;;3.20;;
2225;SDS011;1119;48.288;8.726;2023-03-12T11:22:25;7.23;;;3.80;;
2225;SDS011;1119;48.288;8.726;2023-03-12T11:25:21;7.00;;;3.13;;
2225;SDS011;1119;48.288;8.726;2023-03-12T11:28:12;2.90;;;2.70;;
2225;SDS011;1119;48.288;8.726;2023-03-12T11:31:08;3.73;;;3.40;;
2225;SDS011;1119;48.288;8.726;2023-03-12T11:34:05;4.83;;;4.43;;
2225;SDS011;1119;48.288;8.726;2023-03-12T11:37:01;3.90;;;3.60;;
2225;SDS011;1119;48.288;8.726;2023-03-12T11:40:08;4.80;;;4.40;;
2225;SDS011;1119;48.288;8.726;2023-03-12T11:43:13;2.97;;;2.77;;
2225;SDS011;1119;48.288;8.726;2023-03-12T11:46:22;3.30;;;3.10;;
2225;SDS011;1119;48.288;8.726;2023-03-12T11:49:23;3.70;;;3.50;;
2225;SDS011;1119;48.288;8.726;2023-03-12T11:52:26;4.87;;;4.10;;
2225;SDS011;1119;48.288;8.726;2023-03-12T11:55:33;17.03;;;15.30;;
2225;SDS011;1119;48.288;8.726;2023-03-12T11:58:33;8.70;;;4.70;;
2225;SDS011;1119;48.288;8.726;2023-03-12T12:01:35;6.30;;;4.30;;
2225;SDS011;1119;48.288;8.726;2023-03-12T12:04:44;6.73;;;5.20;;
2225;SDS011;1119;48.288;8.726;2023-03-12T12:08:14;4.10;;;3.80;;
2225;SDS011;1119;48.288;8.726;2023-03-12T12:11:22;3.63;;;3.53;;
2225;SDS011;1119;48.288;8.726;2023-03-12T12:14:24;6.13;;;3.30;;
2225;SDS011;1119;48.288;8.726;2023-03-12T12:17:29;3.10;;;3.00;;
2225;SDS011;1119;48.288;8.726;2023-03-12T12:20:31;4.47;;;3.10;;
2225;SDS011;1119;48.288;8.726;2023-03-12T12:23:28;4.30;;;4.10;;
2225;SDS011;1119;48.288;8.726;2023-03-12T12:26:27;3.47;;;3.27;;
2225;SDS011;1119;48.288;8.726;2023-03-12T12:29:27;4.93;;;3.73;;
2225;SDS011;1119;48.288;8.726;2023-03-12T12:32:31;3.03;;;2.83;;
2225;SDS011;1119;48.288;8.726;2023-03-12T12:35:34;3.50;;;3.30;;
2225;SDS011;1119;48.288;8.726;2023-03-12T12:38:25;3.50;;;3.20;;
2225;SDS011;1119;48.288;8.726;2023-03-12T12:41:19;2.70;;;2.60;;
2225;SDS011;1119;48.288;8.726;2023-03-12T12:44:11;3.20;;;3.07;;
2225;SDS011;1119;48.288;8.726;2023-03-12T12:47:04;3.67;;;3.33;;
2225;SDS011;1119;48.288;8.726;2023-03-12T12:49:57;2.93;;;2.77;;
2225;SDS011;1119;48.288;8.726;2023-03-12T12:52:48;8.73;;;3.80;;
2225;SDS011;1119;48.288;8.726;2023-03-12T12:55:45;4.00;;;3.13;;
2225;SDS011;1119;48.288;8.726;2023-03-12T12:58:55;7.17;;;4.00;;
2225;SDS011;1119;48.288;8.726;2023-03-12T13:01:51;7.00;;;3.83;;
2225;SDS011;1119;48.288;8.726;2023-03-12T13:04:43;6.57;;;4.53;;
2225;SDS011;1119;48.288;8.726;2023-03-12T13:07:32;3.17;;;2.93;;
2225;SDS011;1119;48.288;8.726;2023-03-12T13:10:39;4.30;;;4.00;;
2225;SDS011;1119;48.288;8.726;2023-03-12T13:13:28;2.63;;;2.43;;
2225;SDS011;1119;48.288;8.726;2023-03-12T13:16:16;3.37;;;2.67;;
2225;SDS011;1119;48.288;8.726;2023-03-12T13:19:23;3.40;;;3.10;;
2225;SDS011;1119;48.288;8.726;2023-03-12T13:22:16;3.63;;;3.43;;
2225;SDS011;1119;48.288;8.726;2023-03-12T13:25:22;3.10;;;3.00;;
2225;SDS011;1119;48.288;8.726;2023-03-12T13:28:31;3.73;;;3.53;;
2225;SDS011;1119;48.288;8.726;2023-03-12T13:31:37;3.73;;;3.07;;
2225;SDS011;1119;48.288;8.726;2023-03-12T13:34:29;3.67;;;3.47;;
2225;SDS011;1119;48.288;8.726;2023-03-12T13:40:55;3.00;;;2.80;;
2225;SDS011;1119;48.288;8.726;2023-03-12T13:43:50;3.07;;;2.73;;
2225;SDS011;1119;48.288;8.726;2023-03-12T13:46:39;4.03;;;3.00;;
2225;SDS011;1119;48.288;8.726;2023-03-12T13:49:33;4.13;;;3.83;;
2225;SDS011;1119;48.288;8.726;2023-03-12T13:52:26;3.43;;;2.87;;
2225;SDS011;1119;48.288;8.726;2023-03-12T13:55:19;4.37;;;3.00;;
2225;SDS011;1119;48.288;8.726;2023-03-12T13:58:12;4.07;;;3.77;;
2225;SDS011;1119;48.288;8.726;2023-03-12T14:01:06;7.13;;;5.00;;
2225;SDS011;1119;48.288;8.726;2023-03-12T14:04:03;2.90;;;2.73;;
2225;SDS011;1119;48.288;8.726;2023-03-12T14:06:58;3.67;;;3.30;;
2225;SDS011;1119;48.288;8.726;2023-03-12T14:10:08;4.33;;;3.47;;
2225;SDS011;1119;48.288;8.726;2023-03-12T14:13:10;4.77;;;2.93;;
2225;SDS011;1119;48.288;8.726;2023-03-12T14:16:16;5.23;;;3.57;;
2225;SDS011;1119;48.288;8.726;2023-03-12T14:19:10;9.50;;;3.47;;
2225;SDS011;1119;48.288;8.726;2023-03-12T14:22:02;4.50;;;3.47;;
2225;SDS011;1119;48.288;8.726;2023-03-12T14:24:53;3.40;;;3.10;;
2225;SDS011;1119;48.288;8.726;2023-03-12T14:27:45;5.07;;;4.67;;
2225;SDS011;1119;48.288;8.726;2023-03-12T14:30:40;6.03;;;5.53;;
2225;SDS011;1119;48.288;8.726;2023-03-12T14:33:34;5.60;;;4.43;;
2225;SDS011;1119;48.288;8.726;2023-03-12T14:36:35;4.83;;;4.43;;
2225;SDS011;1119;48.288;8.726;2023-03-12T14:39:29;5.50;;;5.00;;
2225;SDS011;1119;48.288;8.726;2023-03-12T14:42:22;4.47;;;4.07;;
2225;SDS011;1119;48.288;8.726;2023-03-12T14:45:16;3.47;;;3.27;;
2225;SDS011;1119;48.288;8.726;2023-03-12T14:48:05;3.37;;;3.17;;
2225;SDS011;1119;48.288;8.726;2023-03-12T14:50:53;7.03;;;3.30;;
2225;SDS011;1119;48.288;8.726;2023-03-12T14:53:42;4.27;;;2.87;;
2225;SDS011;1119;48.288;8.726;2023-03-12T14:56:30;8.60;;;3.10;;
2225;SDS011;1119;48.288;8.726;2023-03-12T14:59:21;4.17;;;2.87;;
2225;SDS011;1119;48.288;8.726;2023-03-12T15:02:13;2.93;;;2.73;;
2225;SDS011;1119;48.288;8.726;2023-03-12T15:05:13;3.37;;;3.17;;
2225;SDS011;1119;48.288;8.726;2023-03-12T15:08:03;2.57;;;2.30;;
2225;SDS011;1119;48.288;8.726;2023-03-12T15:10:54;5.43;;;3.50;;
2225;SDS011;1119;48.288;8.726;2023-03-12T15:13:43;4.27;;;2.87;;
2225;SDS011;1119;48.288;8.726;2023-03-12T15:16:31;3.30;;;3.10;;
2225;SDS011;1119;48.288;8.726;2023-03-12T15:19:22;4.20;;;3.03;;
2225;SDS011;1119;48.288;8.726;2023-03-12T15:22:16;2.80;;;2.60;;
2225;SDS011;1119;48.288;8.726;2023-03-12T15:25:14;3.47;;;3.27;;
2225;SDS011;1119;48.288;8.726;2023-03-12T15:28:23;6.03;;;3.30;;
2225;SDS011;1119;48.288;8.726;2023-03-12T15:31:13;2.93;;;2.83;;
2225;SDS011;1119;48.288;8.726;2023-03-12T15:34:04;6.00;;;3.53;;
2225;SDS011;1119;48.288;8.726;2023-03-12T15:36:53;4.33;;;3.50;;
2225;SDS011;1119;48.288;8.726;2023-03-12T15:39:41;5.13;;;3.73;;
2225;SDS011;1119;48.288;8.726;2023-03-12T15:42:36;6.53;;;3.90;;
2225;SDS011;1119;48.288;8.726;2023-03-12T15:45:28;3.57;;;3.37;;
2225;SDS011;1119;48.288;8.726;2023-03-12T15:48:22;3.50;;;3.30;;
2225;SDS011;1119;48.288;8.726;2023-03-12T15:51:25;5.50;;;4.07;;
2225;SDS011;1119;48.288;8.726;2023-03-12T15:54:24;3.60;;;3.40;;
2225;SDS011;1119;48.288;8.726;2023-03-12T15:57:20;3.50;;;3.20;;
2225;SDS011;1119;48.288;8.726;2023-03-12T16:00:18;4.43;;;3.10;;
2225;SDS011;1119;48.288;8.726;2023-03-12T16:03:14;3.87;;;2.70;;
2225;SDS011;1119;48.288;8.726;2023-03-12T16:06:03;3.30;;;3.13;;
2225;SDS011;1119;48.288;8.726;2023-03-12T16:08:52;3.30;;;3.10;;
2225;SDS011;1119;48.288;8.726;2023-03-12T16:11:44;2.43;;;2.37;;
2225;SDS011;1119;48.288;8.726;2023-03-12T16:14:32;4.50;;;3.10;;
2225;SDS011;1119;48.288;8.726;2023-03-12T16:17:21;3.43;;;3.13;;
2225;SDS011;1119;48.288;8.726;2023-03-12T16:20:10;6.70;;;3.20;;
2225;SDS011;1119;48.288;8.726;2023-03-12T16:23:02;5.27;;;3.80;;
2225;SDS011;1119;48.288;8.726;2023-03-12T16:25:50;3.93;;;3.63;;
2225;SDS011;1119;48.288;8.726;2023-03-12T16:28:41;3.73;;;2.87;;
2225;SDS011;1119;48.288;8.726;2023-03-12T16:31:29;3.37;;;2.50;;
2225;SDS011;1119;48.288;8.726;2023-03-12T16:34:17;5.83;;;3.37;;
2225;SDS011;1119;48.288;8.726;2023-03-12T16:37:05;3.40;;;3.20;;
2225;SDS011;1119;48.288;8.726;2023-03-12T16:39:55;3.60;;;3.30;;
2225;SDS011;1119;48.288;8.726;2023-03-12T16:42:43;3.93;;;3.63;;
2225;SDS011;1119;48.288;8.726;2023-03-12T16:45:37;3.90;;;3.60;;
2225;SDS011;1119;48.288;8.726;2023-03-12T16:48:29;3.73;;;3.40;;
2225;SDS011;1119;48.288;8.726;2023-03-12T16:51:17;5.87;;;5.30;;
2225;SDS011;1119;48.288;8.726;2023-03-12T16:54:05;6.93;;;4.73;;
2225;SDS011;1119;48.288;8.726;2023-03-12T16:56:52;7.23;;;6.53;;
2225;SDS011;1119;48.288;8.726;2023-03-12T16:59:40;6.47;;;5.60;;
2225;SDS011;1119;48.288;8.726;2023-03-12T17:05:38;6.73;;;5.83;;
2225;SDS011;1119;48.288;8.726;2023-03-12T17:08:25;6.90;;;6.20;;
2225;SDS011;1119;48.288;8.726;2023-03-12T17:11:14;11.93;;;7.00;;
2225;SDS011;1119;48.288;8.726;2023-03-12T17:14:06;8.37;;;7.27;;
2225;SDS011;1119;48.288;8.726;2023-03-12T17:17:02;6.67;;;6.07;;
2225;SDS011;1119;48.288;8.726;2023-03-12T17:19:50;5.93;;;5.43;;
2225;SDS011;1119;48.288;8.726;2023-03-12T17:22:39;6.90;;;5.00;;
2225;SDS011;1119;48.288;8.726;2023-03-12T17:25:28;6.70;;;3.90;;
2225;SDS011;1119;48.288;8.726;2023-03-12T17:28:18;3.63;;;3.43;;
2225;SDS011;1119;48.288;8.726;2023-03-12T17:31:05;4.67;;;3.70;;
2225;SDS011;1119;48.288;8.726;2023-03-12T17:33:53;6.60;;;3.73;;
2225;SDS011;1119;48.288;8.726;2023-03-12T17:36:40;3.60;;;3.37;;
2225;SDS011;1119;48.288;8.726;2023-03-12T17:39:29;4.53;;;3.53;;
2225;SDS011;1119;48.288;8.726;2023-03-12T17:42:17;6.57;;;4.70;;
2225;SDS011;1119;48.288;8.726;2023-03-12T17:45:06;9.83;;;6.13;;
2225;SDS011;1119;48.288;8.726;2023-03-12T17:47:55;6.20;;;4.53;;
2225;SDS011;1119;48.288;8.726;2023-03-12T17:50:42;5.00;;;4.10;;
2225;SDS011;1119;48.288;8.726;2023-03-12T17:53:30;11.90;;;3.80;;
2225;SDS011;1119;48.288;8.726;2023-03-12T17:56:19;6.53;;;3.97;;
2225;SDS011;1119;48.288;8.726;2023-03-12T17:59:06;3.70;;;3.30;;